Time;durP1;ratioP1;P1;durP2;ratioP2;P2;SDS_P1;SDS_P2;PMS_P1;PMS_P2;Temp;Humidity;BMP_temperature;BMP_pressure;BME280_temperature;BME280_humidity;BME280_pressure;Samples;Min_cycle;Max_cycle;Signal;HPM_P1;HPM_P2
2023/10/15 00:02:31;;;;;;;2.75;2.28;;;;;;;-145.53;100.00;64590.91;6102828;28;109366;-62
2023/10/15 00:05:36;;;;;;;2.60;2.20;;;;;;;-145.53;100.00;64590.91;6114421;28;108829;-62
2023/10/15 00:08:39;;;;;;;2.50;2.30;;;;;;;-145.53;100.00;64590.91;6144587;28;109483;-61
2023/10/15 00:11:43;;;;;;;2.85;2.47;;;;;;;-145.53;100.00;64590.91;6113741;28;109384;-61
2023/10/15 00:14:46;;;;;;;2.83;2.30;;;;;;;-145.53;100.00;64590.91;6102370;28;109128;-61
2023/10/15 00:17:51;;;;;;;2.80;2.50;;;;;;;-145.53;100.00;64590.91;6113761;28;109215;-61
2023/10/15 00:21:01;;;;;;;2.30;2.10;;;;;;;-145.53;100.00;64590.91;6113148;28;109270;-61
2023/10/15 00:24:10;;;;;;;2.80;2.37;;;;;;;-145.53;100.00;64590.91;6108608;28;109150;-61
2023/10/15 00:27:15;;;;;;;2.50;2.30;;;;;;;-145.53;100.00;64590.91;6107998;28;109005;-61
2023/10/15 00:30:19;;;;;;;2.40;2.05;;;;;;;-145.53;100.00;64590.91;6113120;28;109122;-61
2023/10/15 00:33:22;;;;;;;2.73;2.20;;;;;;;-145.53;100.00;64590.91;6113405;28;108985;-60
2023/10/15 00:36:27;;;;;;;2.60;2.38;;;;;;;-145.53;100.00;64590.91;6123642;28;110038;-65
2023/10/15 00:39:31;;;;;;;2.53;1.92;;;;;;;-145.53;100.00;64590.91;6147301;28;109091;-62
2023/10/15 00:42:34;;;;;;;2.53;2.30;;;;;;;-145.53;100.00;64590.91;6112600;28;109243;-62
2023/10/15 00:45:43;;;;;;;2.70;2.10;;;;;;;-145.53;100.00;64590.91;6113016;28;109230;-62
2023/10/15 00:48:47;;;;;;;2.67;2.47;;;;;;;-145.53;100.00;64590.91;6101376;28;109288;-61
2023/10/15 00:51:53;;;;;;;2.58;2.38;;;;;;;-145.53;100.00;64590.91;6112726;28;109116;-61
2023/10/15 00:54:58;;;;;;;2.60;2.40;;;;;;;-145.53;100.00;64590.91;6113204;28;109067;-62
2023/10/15 00:58:07;;;;;;;3.30;2.40;;;;;;;-145.53;100.00;64590.91;6107682;28;109304;-62
2023/10/15 01:01:21;;;;;;;2.80;2.50;;;;;;;-145.53;100.00;64590.91;6124593;28;109105;-62
2023/10/15 01:04:30;;;;;;;2.70;2.10;;;;;;;-145.53;100.00;64590.91;6136265;28;109402;-61
2023/10/15 01:07:43;;;;;;;2.78;2.00;;;;;;;-145.53;100.00;64590.91;6141864;28;109559;-61
2023/10/15 01:10:49;;;;;;;2.10;1.90;;;;;;;-145.53;100.00;64590.91;6121533;28;109252;-62
2023/10/15 01:13:53;;;;;;;2.10;1.80;;;;;;;-145.53;100.00;64590.91;6112204;28;109055;-62
2023/10/15 01:16:57;;;;;;;2.00;1.80;;;;;;;-145.53;100.00;64590.91;6112446;28;109489;-62
2023/10/15 01:20:05;;;;;;;1.60;1.40;;;;;;;-145.53;100.00;64590.91;6112411;28;109233;-62
2023/10/15 01:23:22;;;;;;;2.63;1.85;;;;;;;-145.53;100.00;64590.91;6103122;28;111033;-62
2023/10/15 01:26:28;;;;;;;2.20;1.50;;;;;;;-145.53;100.00;64590.91;6130972;28;111658;-62
2023/10/15 01:29:35;;;;;;;1.90;1.58;;;;;;;-145.53;100.00;64590.91;6136560;28;109270;-62
2023/10/15 01:32:38;;;;;;;2.50;2.20;;;;;;;-145.53;100.00;64590.91;6126355;28;109094;-62
2023/10/15 01:35:44;;;;;;;2.10;1.90;;;;;;;-145.53;100.00;64590.91;6135549;28;110957;-62
2023/10/15 01:38:50;;;;;;;2.10;1.80;;;;;;;-145.53;100.00;64590.91;6136502;28;109177;-62
2023/10/15 01:41:57;;;;;;;2.85;2.30;;;;;;;-145.53;100.00;64590.91;6135446;28;109274;-62
2023/10/15 01:45:13;;;;;;;2.40;1.80;;;;;;;-145.53;100.00;64590.91;6119822;28;109148;-62
2023/10/15 01:48:24;;;;;;;2.00;1.80;;;;;;;-145.53;100.00;64590.91;6112499;28;109080;-62
2023/10/15 01:51:29;;;;;;;2.35;2.10;;;;;;;-145.53;100.00;64590.91;6112210;28;109050;-62
2023/10/15 01:54:32;;;;;;;2.53;1.90;;;;;;;-145.53;100.00;64590.91;6109864;28;109140;-62
2023/10/15 01:57:37;;;;;;;2.10;1.80;;;;;;;-145.53;100.00;64590.91;6104640;28;111981;-62
2023/10/15 02:00:44;;;;;;;2.13;1.90;;;;;;;-145.53;100.00;64590.91;6111257;28;109362;-62
2023/10/15 02:03:48;;;;;;;2.40;2.20;;;;;;;-145.53;100.00;64590.91;6112299;28;109997;-62
2023/10/15 02:06:52;;;;;;;2.30;2.10;;;;;;;-145.53;100.00;64590.91;6100589;28;109304;-62
2023/10/15 02:09:55;;;;;;;2.00;1.70;;;;;;;-145.53;100.00;64590.91;6135186;28;108960;-62
2023/10/15 02:13:04;;;;;;;2.30;2.10;;;;;;;-145.53;100.00;64590.91;6135021;28;109217;-62
2023/10/15 02:16:09;;;;;;;2.40;2.13;;;;;;;-145.53;100.00;64590.91;6122182;28;109090;-62
2023/10/15 02:19:15;;;;;;;2.10;1.90;;;;;;;-145.53;100.00;64590.91;6099897;28;109028;-62
2023/10/15 02:22:21;;;;;;;2.38;2.17;;;;;;;-145.53;100.00;64590.91;6111355;28;109702;-62
2023/10/15 02:25:27;;;;;;;3.10;2.10;;;;;;;-145.53;100.00;64590.91;6111165;28;110090;-62
2023/10/15 02:28:32;;;;;;;2.40;2.10;;;;;;;-145.53;100.00;64590.91;6110948;28;108880;-62
2023/10/15 02:31:41;;;;;;;2.50;2.30;;;;;;;-145.53;100.00;64590.91;6119149;28;109073;-59
2023/10/15 02:34:44;;;;;;;2.30;1.90;;;;;;;-145.53;100.00;64590.91;6135465;28;109174;-60
2023/10/15 02:37:48;;;;;;;2.47;2.20;;;;;;;-145.53;100.00;64590.91;6135252;28;109286;-60
2023/10/15 02:41:03;;;;;;;2.80;2.40;;;;;;;-145.53;100.00;64590.91;6124187;28;109149;-59
2023/10/15 02:44:12;;;;;;;2.30;2.10;;;;;;;-145.53;100.00;64590.91;6134539;28;109031;-61
2023/10/15 02:47:28;;;;;;;3.08;2.78;;;;;;;-145.53;100.00;64590.91;6135028;28;109268;-60
2023/10/15 02:50:33;;;;;;;2.45;2.25;;;;;;;-145.53;100.00;64590.91;6134979;28;109537;-59
2023/10/15 02:53:36;;;;;;;2.67;2.47;;;;;;;-145.53;100.00;64590.91;6124266;28;109331;-60
2023/10/15 02:56:41;;;;;;;2.50;2.20;;;;;;;-145.53;100.00;64590.91;6134755;28;108874;-60
2023/10/15 02:59:52;;;;;;;2.35;2.10;;;;;;;-145.53;100.00;64590.91;6134440;28;109090;-59
2023/10/15 03:02:55;;;;;;;2.58;2.08;;;;;;;-145.53;100.00;64590.91;6105758;28;109269;-60
2023/10/15 03:05:59;;;;;;;3.20;2.20;;;;;;;-145.53;100.00;64590.91;6105061;28;109427;-60
2023/10/15 03:09:11;;;;;;;2.78;2.15;;;;;;;-145.53;100.00;64590.91;6126910;28;109287;-60
2023/10/15 03:12:14;;;;;;;2.50;2.20;;;;;;;-145.53;100.00;64590.91;6134547;28;109296;-60
2023/10/15 03:15:20;;;;;;;2.50;2.30;;;;;;;-145.53;100.00;64590.91;6123511;28;109526;-59
2023/10/15 03:18:23;;;;;;;2.40;2.20;;;;;;;-145.53;100.00;64590.91;6134999;28;110293;-60
2023/10/15 03:21:27;;;;;;;2.50;2.30;;;;;;;-145.53;100.00;64590.91;6134170;28;109172;-60
2023/10/15 03:24:34;;;;;;;2.80;2.50;;;;;;;-145.53;100.00;64590.91;6134635;28;110060;-60
2023/10/15 03:27:38;;;;;;;2.90;2.60;;;;;;;-145.53;100.00;64590.91;6123475;28;109527;-59
2023/10/15 03:30:45;;;;;;;2.60;2.40;;;;;;;-145.53;100.00;64590.91;6131986;28;108543;-60
2023/10/15 03:34:12;;;;;;;2.50;2.30;;;;;;;-145.53;100.00;64590.91;6114842;28;109242;-59
2023/10/15 03:37:16;;;;;;;2.60;2.30;;;;;;;-145.53;100.00;64590.91;6129908;28;110080;-59
2023/10/15 03:40:31;;;;;;;2.60;2.40;;;;;;;-145.53;100.00;64590.91;6153024;28;109214;-61
2023/10/15 03:43:35;;;;;;;2.60;2.30;;;;;;;-145.53;100.00;64590.91;6114379;28;111274;-61
2023/10/15 03:46:41;;;;;;;2.50;2.22;;;;;;;-145.53;100.00;64590.91;6114085;28;109404;-61
2023/10/15 03:49:46;;;;;;;2.60;2.40;;;;;;;-145.53;100.00;64590.91;6103376;28;109219;-62
2023/10/15 03:52:50;;;;;;;2.90;2.60;;;;;;;-145.53;100.00;64590.91;6114507;28;108795;-61
2023/10/15 03:55:56;;;;;;;2.72;2.53;;;;;;;-145.53;100.00;64590.91;6114419;28;109647;-61
2023/10/15 03:58:59;;;;;;;2.53;2.33;;;;;;;-145.53;100.00;64590.91;6113679;28;109120;-61
2023/10/15 04:02:06;;;;;;;2.70;2.50;;;;;;;-145.53;100.00;64590.91;6103697;28;109332;-61
2023/10/15 04:05:11;;;;;;;2.70;2.30;;;;;;;-145.53;100.00;64590.91;6114237;28;108852;-61
2023/10/15 04:08:18;;;;;;;2.70;2.50;;;;;;;-145.53;100.00;64590.91;6138241;28;109137;-61
2023/10/15 04:11:29;;;;;;;2.50;2.30;;;;;;;-145.53;100.00;64590.91;6132478;28;110305;-61
2023/10/15 04:14:32;;;;;;;2.50;2.30;;;;;;;-145.53;100.00;64590.91;6135444;28;109302;-62
2023/10/15 04:17:37;;;;;;;2.80;2.50;;;;;;;-145.53;100.00;64590.91;6136899;28;109447;-62
2023/10/15 04:20:42;;;;;;;2.80;2.60;;;;;;;-145.53;100.00;64590.91;6137761;28;109054;-61
2023/10/15 04:23:49;;;;;;;2.45;2.10;;;;;;;-145.53;100.00;64590.91;6126586;28;109541;-61
2023/10/15 04:26:53;;;;;;;2.50;2.30;;;;;;;-145.53;100.00;64590.91;6137514;28;109135;-61
2023/10/15 04:30:00;;;;;;;2.50;2.10;;;;;;;-145.53;100.00;64590.91;6137520;28;109167;-61
2023/10/15 04:33:10;;;;;;;2.65;2.40;;;;;;;-145.53;100.00;64590.91;6137824;28;108516;-61
2023/10/15 04:36:13;;;;;;;2.60;2.20;;;;;;;-145.53;100.00;64590.91;6126189;28;109097;-62
2023/10/15 04:39:21;;;;;;;2.90;2.60;;;;;;;-145.53;100.00;64590.91;6137339;28;109290;-61
2023/10/15 04:42:48;;;;;;;2.60;2.40;;;;;;;-145.53;100.00;64590.91;6136954;28;108863;-61
2023/10/15 04:45:54;;;;;;;2.60;2.40;;;;;;;-145.53;100.00;64590.91;6123335;28;110596;-62
2023/10/15 04:48:59;;;;;;;3.35;2.60;;;;;;;-145.53;100.00;64590.91;6111924;28;109214;-62
2023/10/15 04:52:13;;;;;;;3.00;2.70;;;;;;;-145.53;100.00;64590.91;6124969;28;109206;-61
2023/10/15 04:55:17;;;;;;;2.50;2.30;;;;;;;-145.53;100.00;64590.91;6137077;28;109375;-61
2023/10/15 04:58:21;;;;;;;2.60;2.40;;;;;;;-145.53;100.00;64590.91;6126610;28;110090;-61
2023/10/15 05:01:24;;;;;;;3.00;2.70;;;;;;;-145.53;100.00;64590.91;6136334;28;109560;-61
2023/10/15 05:04:28;;;;;;;2.90;2.60;;;;;;;-145.53;100.00;64590.91;6136565;28;109050;-61
2023/10/15 05:07:32;;;;;;;2.75;2.55;;;;;;;-145.53;100.00;64590.91;6137559;28;109462;-61
2023/10/15 05:10:35;;;;;;;2.90;2.60;;;;;;;-145.53;100.00;64590.91;6151348;28;109150;-61
2023/10/15 05:13:42;;;;;;;2.60;2.40;;;;;;;-145.53;100.00;64590.91;6112765;28;109328;-60
2023/10/15 05:16:47;;;;;;;2.87;2.50;;;;;;;-145.53;100.00;64590.91;6112369;28;110212;-61
2023/10/15 05:19:55;;;;;;;2.80;2.50;;;;;;;-145.53;100.00;64590.91;6101359;28;111056;-61
2023/10/15 05:22:58;;;;;;;2.70;2.30;;;;;;;-145.53;100.00;64590.91;6112075;28;111185;-62
2023/10/15 05:26:02;;;;;;;2.50;2.30;;;;;;;-145.53;100.00;64590.91;6112206;28;111851;-61
2023/10/15 05:29:05;;;;;;;2.50;2.30;;;;;;;-145.53;100.00;64590.91;6111841;28;109089;-61
2023/10/15 05:32:08;;;;;;;2.80;2.50;;;;;;;-145.53;100.00;64590.91;6101235;28;109318;-61
2023/10/15 05:35:13;;;;;;;2.60;2.40;;;;;;;-145.53;100.00;64590.91;6111420;28;109171;-61
2023/10/15 05:38:17;;;;;;;3.00;2.40;;;;;;;-145.53;100.00;64590.91;6119222;28;109225;-61
2023/10/15 05:41:23;;;;;;;2.50;2.30;;;;;;;-145.53;100.00;64590.91;6135743;28;109083;-61
2023/10/15 05:44:27;;;;;;;2.47;2.25;;;;;;;-145.53;100.00;64590.91;6125879;28;111065;-61
2023/10/15 05:47:30;;;;;;;2.80;2.40;;;;;;;-145.53;100.00;64590.91;6136190;28;108671;-62
2023/10/15 05:50:35;;;;;;;3.00;2.80;;;;;;;-145.53;100.00;64590.91;6134992;28;109443;-61
2023/10/15 05:53:39;;;;;;;2.60;2.25;;;;;;;-145.53;100.00;64590.91;6129777;28;108850;-61
2023/10/15 05:56:43;;;;;;;2.70;2.50;;;;;;;-145.53;100.00;64590.91;6131490;28;109418;-61
2023/10/15 05:59:46;;;;;;;2.90;2.60;;;;;;;-145.53;100.00;64590.91;6135014;28;109302;-61
2023/10/15 06:02:50;;;;;;;3.20;2.60;;;;;;;-145.53;100.00;64590.91;6134448;28;109122;-61
2023/10/15 06:05:58;;;;;;;2.90;2.60;;;;;;;-145.53;100.00;64590.91;6124656;28;109205;-61
2023/10/15 06:09:01;;;;;;;3.20;2.90;;;;;;;-145.53;100.00;64590.91;6135712;28;109319;-62
2023/10/15 06:12:05;;;;;;;2.60;2.28;;;;;;;-145.53;100.00;64590.91;6135929;28;109100;-62
2023/10/15 06:15:11;;;;;;;2.90;2.60;;;;;;;-145.53;100.00;64590.91;6135737;28;109362;-62
2023/10/15 06:18:19;;;;;;;2.95;2.65;;;;;;;-145.53;100.00;64590.91;6124955;28;111460;-62
2023/10/15 06:21:25;;;;;;;2.60;2.40;;;;;;;-145.53;100.00;64590.91;6134624;28;109954;-62
2023/10/15 06:24:28;;;;;;;2.70;2.50;;;;;;;-145.53;100.00;64590.91;6135111;28;109164;-62
2023/10/15 06:27:31;;;;;;;2.60;2.40;;;;;;;-145.53;100.00;64590.91;6129879;28;108898;-60
2023/10/15 06:30:35;;;;;;;2.90;2.50;;;;;;;-145.53;100.00;64590.91;6129596;28;109225;-60
2023/10/15 06:33:40;;;;;;;2.88;2.45;;;;;;;-145.53;100.00;64590.91;6115644;28;109142;-60
2023/10/15 06:36:47;;;;;;;2.65;2.40;;;;;;;-145.53;100.00;64590.91;6110893;28;109228;-62
2023/10/15 06:39:50;;;;;;;2.77;2.47;;;;;;;-145.53;100.00;64590.91;6120655;28;109892;-61
2023/10/15 06:43:00;;;;;;;2.83;2.53;;;;;;;-145.53;100.00;64590.91;6134928;28;109471;-61
2023/10/15 06:46:07;;;;;;;2.90;2.60;;;;;;;-145.53;100.00;64590.91;6134923;28;109229;-62
2023/10/15 06:49:10;;;;;;;2.30;2.05;;;;;;;-145.53;100.00;64590.91;6134610;28;109244;-62
2023/10/15 06:52:14;;;;;;;2.60;2.40;;;;;;;-145.53;100.00;64590.91;6123122;28;110014;-61
2023/10/15 06:55:20;;;;;;;2.90;2.70;;;;;;;-145.53;100.00;64590.91;6134965;28;109477;-62
2023/10/15 06:58:24;;;;;;;2.60;2.40;;;;;;;-145.53;100.00;64590.91;6134549;28;110211;-62
2023/10/15 07:01:30;;;;;;;3.00;2.70;;;;;;;-145.53;100.00;64590.91;6129232;28;109303;-62
2023/10/15 07:04:33;;;;;;;2.42;2.22;;;;;;;-145.53;100.00;64590.91;6108244;28;109732;-62
2023/10/15 07:07:38;;;;;;;2.67;2.40;;;;;;;-145.53;100.00;64590.91;6116774;28;109318;-63
2023/10/15 07:10:41;;;;;;;3.03;2.60;;;;;;;-145.53;100.00;64590.91;6163442;28;108714;-63
2023/10/15 07:13:45;;;;;;;2.70;2.50;;;;;;;-145.53;100.00;64590.91;6115501;28;109333;-63
2023/10/15 07:16:50;;;;;;;2.42;2.10;;;;;;;-145.53;100.00;64590.91;6114519;28;110407;-62
2023/10/15 07:19:54;;;;;;;2.60;2.30;;;;;;;-145.53;100.00;64590.91;6114334;28;109275;-63
2023/10/15 07:23:01;;;;;;;2.83;2.20;;;;;;;-145.53;100.00;64590.91;6114289;28;110728;-63
2023/10/15 07:26:04;;;;;;;3.00;2.40;;;;;;;-145.53;100.00;64590.91;6103122;28;109371;-61
2023/10/15 07:29:07;;;;;;;2.70;2.50;;;;;;;-145.53;100.00;64590.91;6135087;28;109744;-62
2023/10/15 07:32:10;;;;;;;2.70;2.40;;;;;;;-145.53;100.00;64590.91;6134092;28;109086;-61
2023/10/15 07:35:15;;;;;;;2.90;2.50;;;;;;;-145.53;100.00;64590.91;6113785;28;108854;-62
2023/10/15 07:38:20;;;;;;;2.70;2.50;;;;;;;-145.53;100.00;64590.91;6113065;28;112906;-62
2023/10/15 07:41:23;;;;;;;3.20;2.50;;;;;;;-145.53;100.00;64590.91;6138479;28;108919;-62
2023/10/15 07:44:27;;;;;;;2.70;2.20;;;;;;;-145.53;100.00;64590.91;6138254;28;109337;-62
2023/10/15 07:47:30;;;;;;;2.70;2.20;;;;;;;-145.53;100.00;64590.91;6127730;28;110198;-62
2023/10/15 07:50:35;;;;;;;3.00;2.60;;;;;;;-145.53;100.00;64590.91;6138201;28;108838;-61
2023/10/15 07:53:39;;;;;;;2.77;2.43;;;;;;;-145.53;100.00;64590.91;6137096;28;109336;-63
2023/10/15 07:56:42;;;;;;;2.70;2.20;;;;;;;-145.53;100.00;64590.91;6137734;28;109346;-62
2023/10/15 07:59:46;;;;;;;2.60;2.40;;;;;;;-145.53;100.00;64590.91;6126102;28;109284;-62
2023/10/15 08:02:52;;;;;;;2.53;2.30;;;;;;;-145.53;100.00;64590.91;6137550;28;109479;-62
2023/10/15 08:05:55;;;;;;;2.30;2.00;;;;;;;-145.53;100.00;64590.91;6137781;28;109113;-63
2023/10/15 08:09:00;;;;;;;3.10;2.60;;;;;;;-145.53;100.00;64590.91;6147933;28;110710;-62
2023/10/15 08:12:05;;;;;;;2.65;2.25;;;;;;;-145.53;100.00;64590.91;6149005;28;110305;-63
2023/10/15 08:15:09;;;;;;;2.90;2.45;;;;;;;-145.53;100.00;64590.91;6112791;28;109466;-62
2023/10/15 08:18:13;;;;;;;3.67;2.63;;;;;;;-145.53;100.00;64590.91;6113180;28;109246;-62
2023/10/15 08:21:16;;;;;;;2.60;2.30;;;;;;;-145.53;100.00;64590.91;6107853;28;109115;-64
2023/10/15 08:24:21;;;;;;;4.00;2.80;;;;;;;-145.53;100.00;64590.91;6108050;28;109035;-63
2023/10/15 08:27:24;;;;;;;3.10;2.60;;;;;;;-145.53;100.00;64590.91;6113124;28;109395;-62
2023/10/15 08:30:27;;;;;;;3.30;2.40;;;;;;;-145.53;100.00;64590.91;6113070;28;109578;-63
2023/10/15 08:33:30;;;;;;;2.70;2.50;;;;;;;-145.53;100.00;64590.91;6102166;28;109519;-63
2023/10/15 08:36:33;;;;;;;2.90;2.60;;;;;;;-145.53;100.00;64590.91;6113235;28;108950;-63
2023/10/15 08:39:38;;;;;;;2.67;2.42;;;;;;;-145.53;100.00;64590.91;6127665;28;109145;-61
2023/10/15 08:42:46;;;;;;;3.53;2.90;;;;;;;-145.53;100.00;64590.91;6136891;28;110443;-63
2023/10/15 08:45:51;;;;;;;3.00;2.70;;;;;;;-145.53;100.00;64590.91;6126469;28;112499;-62
2023/10/15 08:48:55;;;;;;;4.07;3.00;;;;;;;-145.53;100.00;64590.91;6136552;28;109086;-62
2023/10/15 08:52:00;;;;;;;3.03;2.60;;;;;;;-145.53;100.00;64590.91;6136711;28;109266;-63
2023/10/15 08:55:06;;;;;;;3.10;2.70;;;;;;;-145.53;100.00;64590.91;6130624;28;109137;-62
2023/10/15 08:58:10;;;;;;;3.00;2.57;;;;;;;-145.53;100.00;64590.91;6130749;28;109473;-63
2023/10/15 09:01:13;;;;;;;4.25;2.72;;;;;;;-145.53;100.00;64590.91;6135873;28;109760;-63
2023/10/15 09:04:17;;;;;;;3.60;2.90;;;;;;;-145.53;100.00;64590.91;6136662;28;109426;-62
2023/10/15 09:07:20;;;;;;;3.80;3.20;;;;;;;-145.53;100.00;64590.91;6125459;28;109530;-63
2023/10/15 09:10:24;;;;;;;3.20;2.90;;;;;;;-145.53;100.00;64590.91;6132626;28;109617;-63
2023/10/15 09:13:27;;;;;;;3.47;3.17;;;;;;;-145.53;100.00;64590.91;6136090;28;109166;-63
2023/10/15 09:16:31;;;;;;;3.20;2.90;;;;;;;-145.53;100.00;64590.91;6136420;28;109349;-62
2023/10/15 09:19:34;;;;;;;3.10;2.80;;;;;;;-145.53;100.00;64590.91;6107086;28;109472;-63
2023/10/15 09:22:38;;;;;;;3.70;2.70;;;;;;;-145.53;100.00;64590.91;6111988;28;109232;-62
2023/10/15 09:25:43;;;;;;;3.50;2.70;;;;;;;-145.53;100.00;64590.91;6111513;28;109124;-62
2023/10/15 09:28:46;;;;;;;3.10;2.80;;;;;;;-145.53;100.00;64590.91;6111982;28;109110;-62
2023/10/15 09:31:56;;;;;;;3.70;3.00;;;;;;;-145.53;100.00;64590.91;6102623;28;109137;-62
2023/10/15 09:35:01;;;;;;;3.20;2.90;;;;;;;-145.53;100.00;64590.91;6112121;28;109461;-62
2023/10/15 09:38:10;;;;;;;3.15;2.80;;;;;;;-145.53;100.00;64590.91;6112920;28;109126;-62
2023/10/15 09:41:15;;;;;;;3.70;3.00;;;;;;;-145.53;100.00;64590.91;6125054;28;109274;-62
2023/10/15 09:44:18;;;;;;;3.33;3.00;;;;;;;-145.53;100.00;64590.91;6135343;28;109421;-63
2023/10/15 09:47:24;;;;;;;3.40;3.10;;;;;;;-145.53;100.00;64590.91;6135824;28;108975;-63
2023/10/15 09:50:31;;;;;;;3.07;2.70;;;;;;;-145.53;100.00;64590.91;6112324;28;109239;-63
2023/10/15 09:53:35;;;;;;;3.28;2.97;;;;;;;-145.53;100.00;64590.91;6101514;28;110170;-63
2023/10/15 09:56:41;;;;;;;3.40;2.80;;;;;;;-145.53;100.00;64590.91;6111008;28;109168;-62
2023/10/15 09:59:51;;;;;;;4.10;3.20;;;;;;;-145.53;100.00;64590.91;6111096;28;109091;-62
2023/10/15 10:03:08;;;;;;;3.00;2.67;;;;;;;-145.53;100.00;64590.91;6110434;28;109443;-63
2023/10/15 10:06:26;;;;;;;3.10;2.80;;;;;;;-145.53;100.00;64590.91;6105555;28;109392;-63
2023/10/15 10:09:51;;;;;;;3.47;3.13;;;;;;;-145.53;100.00;64590.91;6123315;28;109490;-61
2023/10/15 10:13:18;;;;;;;3.33;2.70;;;;;;;-145.53;100.00;64590.91;6135244;28;110225;-62
2023/10/15 10:16:26;;;;;;;3.45;3.15;;;;;;;-145.53;100.00;64590.91;6124595;28;109020;-62
2023/10/15 10:19:31;;;;;;;3.80;3.00;;;;;;;-145.53;100.00;64590.91;6135351;28;110465;-62
2023/10/15 10:22:34;;;;;;;3.33;2.80;;;;;;;-145.53;100.00;64590.91;6135087;28;109467;-62
2023/10/15 10:25:40;;;;;;;3.30;3.00;;;;;;;-145.53;100.00;64590.91;6133668;28;109329;-62
2023/10/15 10:28:47;;;;;;;3.20;2.90;;;;;;;-145.53;100.00;64590.91;6126840;28;109379;-61
2023/10/15 10:31:51;;;;;;;3.75;2.90;;;;;;;-145.53;100.00;64590.91;6135319;28;108845;-61
2023/10/15 10:35:15;;;;;;;3.00;2.70;;;;;;;-145.53;100.00;64590.91;6134406;28;109579;-61
2023/10/15 10:38:19;;;;;;;3.20;2.90;;;;;;;-145.53;100.00;64590.91;6123596;28;109243;-62
2023/10/15 10:41:34;;;;;;;3.53;3.23;;;;;;;-145.53;100.00;64590.91;6134464;28;108907;-67
2023/10/15 10:44:41;;;;;;;10.35;5.25;;;;;;;-145.53;100.00;64590.91;6120783;28;109309;-65
2023/10/15 10:47:48;;;;;;;8.60;5.93;;;;;;;-145.53;100.00;64590.91;6111039;28;109231;-62
2023/10/15 10:51:12;;;;;;;25.13;7.85;;;;;;;-145.53;100.00;64590.91;6100416;28;109994;-61
2023/10/15 10:54:26;;;;;;;31.67;8.03;;;;;;;-145.53;100.00;64590.91;6121533;28;109742;-62
2023/10/15 10:57:31;;;;;;;19.50;6.90;;;;;;;-145.53;100.00;64590.91;6134163;28;109258;-62
2023/10/15 11:00:36;;;;;;;15.80;6.53;;;;;;;-145.53;100.00;64590.91;6123691;28;109466;-61
2023/10/15 11:03:40;;;;;;;16.67;7.40;;;;;;;-145.53;100.00;64590.91;6133974;28;109261;-61
2023/10/15 11:06:45;;;;;;;13.27;7.00;;;;;;;-145.53;100.00;64590.91;6134903;28;109639;-61
2023/10/15 11:09:49;;;;;;;11.25;7.35;;;;;;;-145.53;100.00;64590.91;6134773;28;108865;-61
2023/10/15 11:12:53;;;;;;;12.65;7.88;;;;;;;-145.53;100.00;64590.91;6123643;28;109031;-62
2023/10/15 11:15:57;;;;;;;13.25;7.10;;;;;;;-145.53;100.00;64590.91;6134298;28;109360;-61
2023/10/15 11:19:00;;;;;;;12.43;7.18;;;;;;;-145.53;100.00;64590.91;6127023;28;109173;-62
2023/10/15 11:22:04;;;;;;;14.10;7.53;;;;;;;-145.53;100.00;64590.91;6111125;28;109090;-61
2023/10/15 11:25:14;;;;;;;11.15;7.38;;;;;;;-145.53;100.00;64590.91;6100214;28;109122;-61
2023/10/15 11:28:18;;;;;;;10.25;7.22;;;;;;;-145.53;100.00;64590.91;6112215;28;109015;-63
2023/10/15 11:31:27;;;;;;;10.33;7.30;;;;;;;-145.53;100.00;64590.91;6138245;28;109115;-62
2023/10/15 11:34:33;;;;;;;13.70;7.60;;;;;;;-145.53;100.00;64590.91;6124008;28;109188;-62
2023/10/15 11:37:36;;;;;;;10.30;7.35;;;;;;;-145.53;100.00;64590.91;6133059;28;112023;-61
2023/10/15 11:40:40;;;;;;;10.93;6.43;;;;;;;-145.53;100.00;64590.91;6114571;28;109312;-62
2023/10/15 11:43:44;;;;;;;10.23;7.35;;;;;;;-145.53;100.00;64590.91;6124711;28;109047;-62
2023/10/15 11:46:49;;;;;;;10.13;7.38;;;;;;;-145.53;100.00;64590.91;6099468;28;109205;-62
2023/10/15 11:49:54;;;;;;;10.00;6.85;;;;;;;-145.53;100.00;64590.91;6109878;28;110448;-62
2023/10/15 11:52:58;;;;;;;10.57;6.63;;;;;;;-145.53;100.00;64590.91;6114140;28;108973;-62
2023/10/15 11:56:03;;;;;;;7.63;6.20;;;;;;;-145.53;100.00;64590.91;6133396;28;109362;-62
2023/10/15 11:59:06;;;;;;;10.57;6.90;;;;;;;-145.53;100.00;64590.91;6120322;28;109282;-62
2023/10/15 12:02:12;;;;;;;9.30;6.20;;;;;;;-145.53;100.00;64590.91;6113221;28;110221;-62
2023/10/15 12:05:15;;;;;;;7.75;5.90;;;;;;;-145.53;100.00;64590.91;6113730;28;109130;-62
2023/10/15 12:08:21;;;;;;;9.30;6.70;;;;;;;-145.53;100.00;64590.91;6109708;28;109982;-62
2023/10/15 12:11:25;;;;;;;8.90;6.35;;;;;;;-145.53;100.00;64590.91;6131894;28;110383;-62
2023/10/15 12:14:29;;;;;;;6.75;6.05;;;;;;;-145.53;100.00;64590.91;6137454;28;109267;-63
2023/10/15 12:17:33;;;;;;;6.88;6.00;;;;;;;-145.53;100.00;64590.91;6137171;28;109159;-62
2023/10/15 12:20:37;;;;;;;8.18;6.38;;;;;;;-145.53;100.00;64590.91;6126936;28;110831;-62
2023/10/15 12:23:43;;;;;;;7.30;6.30;;;;;;;-145.53;100.00;64590.91;6137138;28;109232;-62
2023/10/15 12:26:46;;;;;;;8.07;6.00;;;;;;;-145.53;100.00;64590.91;6135910;28;110152;-62
2023/10/15 12:29:51;;;;;;;7.50;5.85;;;;;;;-145.53;100.00;64590.91;6124246;28;109178;-62
2023/10/15 12:32:59;;;;;;;7.80;5.80;;;;;;;-145.53;100.00;64590.91;6125123;28;109306;-63
2023/10/15 12:36:03;;;;;;;7.13;5.50;;;;;;;-145.53;100.00;64590.91;6117873;28;109208;-63
2023/10/15 12:39:06;;;;;;;6.73;5.77;;;;;;;-145.53;100.00;64590.91;6119697;28;109821;-62
2023/10/15 12:42:11;;;;;;;8.13;5.60;;;;;;;-145.53;100.00;64590.91;6132159;28;110177;-63
2023/10/15 12:45:14;;;;;;;7.00;5.50;;;;;;;-145.53;100.00;64590.91;6131066;28;110209;-62
2023/10/15 12:48:19;;;;;;;8.20;5.75;;;;;;;-145.53;100.00;64590.91;6136350;28;109123;-63
2023/10/15 12:51:22;;;;;;;6.40;5.30;;;;;;;-145.53;100.00;64590.91;6112628;28;109303;-62
2023/10/15 12:54:25;;;;;;;5.93;5.30;;;;;;;-145.53;100.00;64590.91;6102396;28;109392;-63
2023/10/15 12:57:29;;;;;;;6.00;5.40;;;;;;;-145.53;100.00;64590.91;6113715;28;109555;-62
2023/10/15 13:00:32;;;;;;;6.60;5.50;;;;;;;-145.53;100.00;64590.91;6135533;28;110105;-63
2023/10/15 13:03:37;;;;;;;6.10;5.25;;;;;;;-145.53;100.00;64590.91;6135508;28;110146;-63
2023/10/15 13:06:41;;;;;;;5.55;4.85;;;;;;;-145.53;100.00;64590.91;6124214;28;110189;-63
2023/10/15 13:09:44;;;;;;;5.75;5.20;;;;;;;-145.53;100.00;64590.91;6131606;28;109256;-63
2023/10/15 13:12:49;;;;;;;6.50;5.30;;;;;;;-145.53;100.00;64590.91;6114840;28;109311;-63
2023/10/15 13:15:52;;;;;;;6.70;4.80;;;;;;;-145.53;100.00;64590.91;6125668;28;110778;-63
2023/10/15 13:18:57;;;;;;;5.63;5.00;;;;;;;-145.53;100.00;64590.91;6125586;28;109119;-64
2023/10/15 13:22:04;;;;;;;6.43;5.13;;;;;;;-145.53;100.00;64590.91;6112012;28;109245;-63
2023/10/15 13:25:09;;;;;;;5.68;5.05;;;;;;;-145.53;100.00;64590.91;6112539;28;111876;-61
2023/10/15 13:28:12;;;;;;;6.30;4.80;;;;;;;-145.53;100.00;64590.91;6117089;28;109857;-68
2023/10/15 13:31:15;;;;;;;6.63;5.30;;;;;;;-145.53;100.00;64590.91;6117681;28;110332;-72
2023/10/15 13:34:19;;;;;;;6.30;5.70;;;;;;;-145.53;100.00;64590.91;6113526;28;109646;-69
2023/10/15 13:37:22;;;;;;;7.87;6.00;;;;;;;-145.53;100.00;64590.91;6136767;28;109183;-71
2023/10/15 13:40:25;;;;;;;9.30;6.50;;;;;;;-145.53;100.00;64590.91;6125375;28;109298;-66
2023/10/15 13:43:29;;;;;;;11.85;6.38;;;;;;;-145.53;100.00;64590.91;6122490;28;109259;-69
2023/10/15 13:46:32;;;;;;;8.85;6.68;;;;;;;-145.53;100.00;64590.91;6116265;28;110321;-69
2023/10/15 13:49:36;;;;;;;9.15;6.25;;;;;;;-145.53;100.00;64590.91;6112364;28;109571;-69
2023/10/15 13:52:42;;;;;;;11.32;5.60;;;;;;;-145.53;100.00;64590.91;6116227;28;109046;-68
2023/10/15 13:55:45;;;;;;;11.50;6.00;;;;;;;-145.53;100.00;64590.91;6123461;28;110098;-69